createdAt,value
2022-11-16T00:00:37.164Z,7.57
2022-11-16T00:03:05.131Z,7.85
2022-11-16T00:05:32.491Z,7.20
2022-11-16T00:07:59.735Z,7.40
2022-11-16T00:10:26.963Z,7.88
2022-11-16T00:12:54.195Z,7.97
2022-11-16T00:15:21.425Z,7.50
2022-11-16T00:17:48.696Z,7.53
2022-11-16T00:20:16.098Z,7.20
2022-11-16T00:22:43.334Z,7.15
2022-11-16T00:25:10.585Z,7.28
2022-11-16T00:27:37.883Z,7.53
2022-11-16T00:30:05.339Z,7.15
2022-11-16T00:32:33.538Z,7.40
2022-11-16T00:35:00.762Z,7.68
2022-11-16T00:37:27.981Z,8.25
2022-11-16T00:39:55.163Z,6.55
2022-11-16T00:42:22.413Z,7.20
2022-11-16T00:44:50.948Z,7.13
2022-11-16T00:47:18.260Z,7.43
2022-11-16T00:49:45.576Z,6.82
2022-11-16T00:52:13.116Z,7.80
2022-11-16T00:54:40.339Z,8.00
2022-11-16T00:57:07.558Z,7.50
2022-11-16T00:59:34.943Z,8.07
2022-11-16T01:02:02.174Z,7.13
2022-11-16T01:04:29.456Z,7.85
2022-11-16T01:06:56.762Z,8.15
2022-11-16T01:09:24.967Z,7.43
2022-11-16T01:12:10.338Z,7.90
2022-11-16T01:14:38.884Z,8.25
2022-11-16T01:17:06.167Z,7.53
2022-11-16T01:19:33.366Z,7.63
2022-11-16T01:22:00.975Z,7.32
2022-11-16T01:24:29.371Z,7.55
2022-11-16T01:26:58.078Z,7.72
2022-11-16T01:29:30.558Z,8.05
2022-11-16T01:32:00.540Z,7.90
2022-11-16T01:34:27.840Z,7.18
2022-11-16T01:37:00.905Z,7.55
2022-11-16T01:39:32.043Z,7.85
2022-11-16T01:42:02.076Z,8.27
2022-11-16T01:44:32.977Z,7.70
2022-11-16T01:47:17.164Z,7.32
2022-11-16T01:49:49.828Z,8.07
2022-11-16T01:52:22.294Z,7.35
2022-11-16T01:54:52.313Z,7.75
2022-11-16T01:57:23.326Z,7.47
2022-11-16T02:00:01.635Z,7.63
2022-11-16T02:02:41.086Z,7.18
2022-11-16T02:05:19.031Z,7.45
2022-11-16T02:08:25.169Z,7.43
2022-11-16T02:11:00.134Z,7.18
2022-11-16T02:13:31.901Z,7.15
2022-11-16T02:16:19.591Z,7.35
2022-11-16T02:19:06.656Z,7.80
2022-11-16T02:21:41.851Z,7.20
2022-11-16T02:24:27.359Z,7.00
2022-11-16T02:27:21.100Z,7.45
2022-11-16T02:29:50.736Z,6.70
2022-11-16T02:32:19.997Z,7.80
2022-11-16T02:37:16.171Z,6.25
2022-11-16T02:39:44.431Z,6.53
2022-11-16T02:42:15.126Z,6.80
2022-11-16T02:44:44.599Z,6.95
2022-11-16T02:47:13.901Z,6.85
2022-11-16T02:49:44.973Z,7.05
2022-11-16T02:52:15.384Z,6.40
2022-11-16T02:54:43.134Z,7.38
2022-11-16T02:57:10.571Z,7.10
2022-11-16T02:59:38.242Z,6.85
2022-11-16T03:02:05.482Z,7.20
2022-11-16T03:04:41.930Z,6.82
2022-11-16T03:07:11.476Z,7.32
2022-11-16T03:09:40.981Z,7.30
2022-11-16T03:12:12.348Z,7.15
2022-11-16T03:14:42.964Z,7.00
2022-11-16T03:17:15.482Z,7.63
2022-11-16T03:19:44.536Z,6.95
2022-11-16T03:24:39.520Z,6.40
2022-11-16T03:27:09.488Z,6.35
2022-11-16T03:29:42.358Z,6.70
2022-11-16T03:32:29.148Z,5.60
2022-11-16T03:35:08.794Z,6.50
2022-11-16T03:37:37.289Z,6.43
2022-11-16T03:40:05.653Z,6.82
2022-11-16T03:42:34.907Z,6.63
2022-11-16T03:45:02.508Z,6.22
2022-11-16T03:47:30.736Z,6.90
2022-11-16T03:49:58.004Z,6.65
2022-11-16T03:52:26.130Z,6.50
2022-11-16T03:54:53.704Z,7.25
2022-11-16T03:57:20.671Z,7.05
2022-11-16T03:59:54.008Z,6.78
2022-11-16T04:02:21.211Z,7.43
2022-11-16T04:07:55.210Z,7.40
2022-11-16T04:10:41.054Z,6.68
2022-11-16T04:13:29.525Z,6.72
2022-11-16T04:16:15.154Z,6.78
2022-11-16T04:19:02.943Z,6.50
2022-11-16T04:21:52.355Z,6.57
2022-11-16T04:24:23.903Z,6.80
2022-11-16T04:27:12.241Z,6.65
2022-11-16T04:29:40.732Z,7.50
2022-11-16T04:32:27.398Z,6.25
2022-11-16T04:35:13.478Z,6.25
2022-11-16T04:37:49.960Z,6.32
2022-11-16T04:40:23.818Z,5.45
2022-11-16T04:43:01.519Z,5.50
2022-11-16T04:45:52.065Z,5.53
2022-11-16T04:48:22.019Z,5.78
2022-11-16T04:50:52.980Z,5.07
2022-11-16T04:53:22.547Z,5.53
2022-11-16T04:56:00.684Z,5.53
2022-11-16T04:58:28.827Z,5.18
2022-11-16T05:00:56.334Z,4.63
2022-11-16T05:03:23.580Z,5.05
2022-11-16T05:05:51.202Z,5.20
2022-11-16T05:08:18.789Z,4.80
2022-11-16T05:10:51.025Z,4.95
2022-11-16T05:13:18.478Z,4.70
2022-11-16T05:15:46.683Z,4.90
2022-11-16T05:18:13.924Z,4.40
2022-11-16T05:21:00.102Z,4.75
2022-11-16T05:23:48.112Z,4.68
2022-11-16T05:28:45.401Z,4.70
2022-11-16T05:31:13.727Z,4.45
2022-11-16T05:33:41.195Z,4.60
2022-11-16T05:36:10.428Z,4.75
2022-11-16T05:38:37.736Z,4.25
2022-11-16T05:41:06.094Z,4.45
2022-11-16T05:43:34.356Z,4.53
2022-11-16T05:46:10.154Z,4.75
2022-11-16T05:48:38.275Z,4.55
2022-11-16T05:51:06.739Z,4.57
2022-11-16T05:53:35.126Z,4.38
2022-11-16T05:56:03.031Z,5.05
2022-11-16T05:58:33.881Z,5.60
2022-11-16T06:01:01.753Z,5.10
2022-11-16T06:03:31.920Z,5.57
2022-11-16T06:06:00.363Z,5.55
2022-11-16T06:11:03.077Z,5.63
2022-11-16T06:13:31.377Z,5.75
2022-11-16T06:16:01.132Z,6.10
2022-11-16T06:18:30.191Z,6.00
2022-11-16T06:20:58.427Z,6.18
2022-11-16T06:23:26.366Z,6.30
2022-11-16T06:25:55.519Z,6.30
2022-11-16T06:28:25.164Z,6.40
2022-11-16T06:30:52.372Z,6.20
2022-11-16T06:33:19.759Z,7.22
2022-11-16T06:35:47.166Z,6.85
2022-11-16T06:38:19.383Z,6.90
2022-11-16T06:40:52.433Z,8.27
2022-11-16T06:43:20.739Z,8.32
2022-11-16T06:45:55.635Z,7.88
2022-11-16T06:48:23.289Z,6.85
2022-11-16T06:50:54.649Z,6.10
2022-11-16T06:53:27.752Z,6.20
2022-11-16T06:55:56.541Z,7.00
2022-11-16T06:58:23.811Z,7.07
2022-11-16T07:00:51.064Z,6.85
2022-11-16T07:03:18.529Z,6.78
2022-11-16T07:05:45.710Z,7.47
2022-11-16T07:08:16.826Z,6.75
2022-11-16T07:10:44.116Z,7.38
2022-11-16T07:13:11.429Z,7.93
2022-11-16T07:15:39.914Z,7.65
2022-11-16T07:18:08.959Z,6.88
2022-11-16T07:20:38.945Z,7.10
2022-11-16T07:23:09.062Z,6.85
2022-11-16T07:25:40.876Z,7.18
2022-11-16T07:28:08.947Z,6.60
2022-11-16T07:30:36.558Z,6.55
2022-11-16T07:33:07.908Z,6.88
2022-11-16T07:36:10.948Z,6.10
2022-11-16T07:38:39.315Z,5.50
2022-11-16T07:41:08.301Z,5.20
2022-11-16T07:43:39.900Z,5.72
2022-11-16T07:46:45.159Z,4.82
2022-11-16T07:49:00.815Z,4.50
2022-11-16T07:51:50.905Z,4.10
2022-11-16T07:54:40.822Z,4.00
2022-11-16T07:57:08.646Z,3.78
2022-11-16T07:59:35.903Z,3.53
2022-11-16T08:02:04.802Z,3.90
2022-11-16T08:04:32.925Z,3.35
2022-11-16T08:07:00.411Z,3.13
2022-11-16T08:09:32.908Z,2.88
2022-11-16T08:12:00.533Z,3.05
2022-11-16T08:14:27.739Z,3.03
2022-11-16T08:16:56.593Z,3.45
2022-11-16T08:19:23.779Z,2.90
2022-11-16T08:21:51.098Z,2.40
2022-11-16T08:24:19.634Z,2.67
2022-11-16T08:26:47.413Z,2.78
2022-11-16T08:29:15.856Z,2.42
2022-11-16T08:31:48.327Z,3.00
2022-11-16T08:34:19.043Z,2.17
2022-11-16T08:36:50.332Z,2.40
2022-11-16T08:39:19.840Z,2.13
2022-11-16T08:41:47.124Z,2.15
2022-11-16T08:44:15.697Z,2.30
2022-11-16T08:46:46.183Z,2.28
2022-11-16T08:49:22.799Z,2.35
2022-11-16T08:51:50.099Z,2.53
2022-11-16T08:54:19.065Z,2.55
2022-11-16T08:56:46.540Z,3.28
2022-11-16T08:59:14.205Z,3.13
2022-11-16T09:01:47.245Z,2.97
2022-11-16T09:04:14.442Z,2.72
2022-11-16T09:06:41.701Z,2.35
2022-11-16T09:09:08.925Z,2.90
2022-11-16T09:11:36.200Z,2.90
2022-11-16T09:14:03.473Z,2.55
2022-11-16T09:16:30.800Z,3.30
2022-11-16T09:18:58.068Z,3.15
2022-11-16T09:21:26.725Z,3.20
2022-11-16T09:23:54.522Z,3.50
2022-11-16T09:26:23.084Z,3.63
2022-11-16T09:29:04.369Z,3.38
2022-11-16T09:31:34.567Z,3.70
2022-11-16T09:34:02.837Z,3.30
2022-11-16T09:36:30.443Z,3.10
2022-11-16T09:41:51.971Z,2.45
2022-11-16T09:44:37.858Z,3.67
2022-11-16T09:47:05.961Z,3.25
2022-11-16T09:49:37.898Z,2.90
2022-11-16T09:52:09.059Z,2.60
2022-11-16T09:54:39.381Z,2.80
2022-11-16T09:57:12.378Z,3.08
2022-11-16T09:59:50.282Z,2.80
2022-11-16T10:02:27.548Z,3.20
2022-11-16T10:04:58.862Z,2.70
2022-11-16T10:07:29.906Z,2.90
2022-11-16T10:09:57.415Z,2.60
2022-11-16T10:12:35.110Z,2.95
2022-11-16T10:15:15.180Z,2.45
2022-11-16T10:17:42.423Z,2.70
2022-11-16T10:20:30.899Z,2.70
2022-11-16T10:23:17.783Z,2.33
2022-11-16T10:25:46.536Z,2.42
2022-11-16T10:28:28.934Z,2.30
2022-11-16T10:31:03.030Z,2.03
2022-11-16T10:33:36.145Z,3.30
2022-11-16T10:36:06.423Z,3.30
2022-11-16T10:38:34.084Z,2.78
2022-11-16T10:41:23.729Z,2.78
2022-11-16T10:43:57.103Z,2.25
2022-11-16T10:46:37.411Z,2.30
2022-11-16T10:49:11.570Z,2.60
2022-11-16T10:51:38.897Z,2.10
2022-11-16T10:54:16.089Z,2.05
2022-11-16T10:56:45.474Z,2.40
2022-11-16T10:59:13.821Z,1.98
2022-11-16T11:01:53.076Z,1.90
2022-11-16T11:04:27.807Z,2.10
2022-11-16T11:06:55.107Z,1.85
2022-11-16T11:09:24.460Z,2.17
2022-11-16T11:14:37.800Z,1.80
2022-11-16T11:17:12.287Z,1.90
2022-11-16T11:19:39.561Z,1.98
2022-11-16T11:22:14.348Z,1.95
2022-11-16T11:24:47.402Z,2.03
2022-11-16T11:27:15.001Z,1.70
2022-11-16T11:29:43.155Z,1.85
2022-11-16T11:32:23.568Z,2.55
2022-11-16T11:34:53.933Z,2.15
2022-11-16T11:37:32.446Z,2.17
2022-11-16T11:40:18.957Z,1.80
2022-11-16T11:42:56.874Z,1.70
2022-11-16T11:45:26.296Z,2.20
2022-11-16T11:48:00.868Z,1.65
2022-11-16T11:50:41.160Z,1.73
2022-11-16T11:53:12.437Z,1.75
2022-11-16T11:55:39.912Z,1.90
2022-11-16T11:58:12.081Z,1.65
2022-11-16T12:00:59.721Z,1.58
2022-11-16T12:03:36.504Z,1.85
2022-11-16T12:06:08.122Z,1.70
2022-11-16T12:09:01.678Z,1.63
2022-11-16T12:11:44.766Z,1.67
2022-11-16T12:14:32.821Z,2.00
2022-11-16T12:17:07.809Z,1.63
2022-11-16T12:19:34.964Z,1.80
2022-11-16T12:22:15.282Z,1.90
2022-11-16T12:24:48.551Z,1.90
2022-11-16T12:27:27.034Z,1.85
2022-11-16T12:30:08.634Z,1.90
2022-11-16T12:32:38.876Z,1.73
2022-11-16T12:35:06.115Z,1.83
2022-11-16T12:37:44.763Z,2.38
2022-11-16T12:40:34.796Z,1.90
2022-11-16T12:43:12.023Z,1.80
2022-11-16T12:45:51.398Z,1.85
2022-11-16T12:48:28.459Z,2.00
2022-11-16T12:51:14.616Z,1.63
2022-11-16T12:53:54.183Z,1.92
2022-11-16T12:56:27.304Z,1.83
2022-11-16T12:59:09.858Z,1.88
2022-11-16T13:01:40.260Z,2.20
2022-11-16T13:04:16.467Z,1.88
2022-11-16T13:06:50.239Z,1.70
2022-11-16T13:09:19.261Z,1.70
2022-11-16T13:11:46.438Z,1.80
2022-11-16T13:14:16.723Z,2.17
2022-11-16T13:16:44.892Z,1.50
2022-11-16T13:19:14.116Z,1.88
2022-11-16T13:21:48.321Z,1.63
2022-11-16T13:24:21.309Z,1.67
2022-11-16T13:27:07.252Z,1.60
2022-11-16T13:29:38.159Z,1.42
2022-11-16T13:32:11.924Z,1.40
2022-11-16T13:34:40.126Z,1.38
2022-11-16T13:37:25.817Z,1.40
2022-11-16T13:39:59.083Z,1.35
2022-11-16T13:42:26.721Z,1.42
2022-11-16T13:44:54.222Z,1.40
2022-11-16T13:47:26.344Z,1.60
2022-11-16T13:49:56.610Z,1.45
2022-11-16T13:52:28.774Z,1.33
2022-11-16T13:55:30.266Z,1.30
2022-11-16T13:57:58.047Z,1.42
2022-11-16T14:00:28.630Z,1.60
2022-11-16T14:03:14.715Z,1.45
2022-11-16T14:05:43.269Z,1.50
2022-11-16T14:08:19.816Z,1.58
2022-11-16T14:10:50.094Z,1.85
2022-11-16T14:13:38.472Z,1.55
2022-11-16T14:16:21.480Z,1.55
2022-11-16T14:19:02.108Z,1.38
2022-11-16T14:21:48.605Z,1.70
2022-11-16T14:24:28.469Z,1.70
2022-11-16T14:27:15.539Z,1.30
2022-11-16T14:29:45.498Z,1.42
2022-11-16T14:32:18.557Z,1.50
2022-11-16T14:34:48.051Z,1.70
2022-11-16T14:37:30.362Z,1.63
2022-11-16T14:40:06.841Z,1.50
2022-11-16T14:43:09.481Z,1.60
2022-11-16T14:45:34.068Z,1.42
2022-11-16T14:48:03.581Z,1.60
2022-11-16T14:50:35.403Z,1.33
2022-11-16T14:53:07.228Z,1.73
2022-11-16T14:55:41.574Z,1.80
2022-11-16T14:58:08.797Z,1.40
2022-11-16T15:00:36.813Z,2.15
2022-11-16T15:03:05.550Z,1.90
2022-11-16T15:05:36.546Z,2.03
2022-11-16T15:08:12.976Z,2.25
2022-11-16T15:10:49.407Z,2.55
2022-11-16T15:13:23.877Z,2.70
2022-11-16T15:16:07.946Z,3.38
2022-11-16T15:18:35.198Z,2.50
2022-11-16T15:21:02.383Z,2.92
2022-11-16T15:23:30.898Z,3.20
2022-11-16T15:26:00.267Z,2.72
2022-11-16T15:28:28.711Z,2.35
2022-11-16T15:31:00.447Z,2.40
2022-11-16T15:33:29.893Z,1.98
2022-11-16T15:35:57.499Z,2.40
2022-11-16T15:38:24.710Z,2.28
2022-11-16T15:40:56.078Z,2.20
2022-11-16T15:43:25.031Z,2.30
2022-11-16T15:45:52.919Z,2.22
2022-11-16T15:48:21.632Z,2.50
2022-11-16T15:51:19.965Z,2.17
2022-11-16T15:53:48.339Z,2.00
2022-11-16T15:56:18.475Z,2.22
2022-11-16T15:58:45.793Z,1.83
2022-11-16T16:01:13.920Z,2.13
2022-11-16T16:03:46.834Z,2.20
2022-11-16T16:06:15.780Z,2.60
2022-11-16T16:08:44.896Z,2.38
2022-11-16T16:11:21.432Z,2.67
2022-11-16T16:14:03.147Z,2.58
2022-11-16T16:16:30.401Z,2.72
2022-11-16T16:19:00.827Z,3.13
2022-11-16T16:21:41.704Z,3.13
2022-11-16T16:24:10.152Z,2.60
2022-11-16T16:26:37.403Z,2.92
2022-11-16T16:29:04.632Z,3.50
2022-11-16T16:31:31.858Z,3.05
2022-11-16T16:33:59.524Z,3.45
2022-11-16T16:36:26.747Z,3.40
2022-11-16T16:38:54.377Z,3.22
2022-11-16T16:41:24.529Z,3.10
2022-11-16T16:43:52.195Z,2.95
2022-11-16T16:46:19.395Z,3.50
2022-11-16T16:48:46.584Z,3.05
2022-11-16T16:51:13.870Z,3.00
2022-11-16T16:53:41.172Z,3.33
2022-11-16T16:56:15.104Z,2.80
2022-11-16T16:58:42.392Z,3.15
2022-11-16T17:01:11.127Z,3.28
2022-11-16T17:03:38.349Z,3.20
2022-11-16T17:06:05.617Z,2.90
2022-11-16T17:08:36.472Z,3.42
2022-11-16T17:11:04.029Z,3.33
2022-11-16T17:13:31.658Z,3.22
2022-11-16T17:15:59.079Z,3.92
2022-11-16T17:18:26.651Z,3.25
2022-11-16T17:20:53.865Z,3.75
2022-11-16T17:23:21.037Z,3.33
2022-11-16T17:25:48.264Z,3.70
2022-11-16T17:28:15.524Z,4.00
2022-11-16T17:30:42.785Z,4.40
2022-11-16T17:33:10.026Z,4.18
2022-11-16T17:35:37.248Z,4.57
2022-11-16T17:38:04.848Z,3.75
2022-11-16T17:40:32.099Z,4.40
2022-11-16T17:42:59.351Z,3.95
2022-11-16T17:45:27.469Z,3.90
2022-11-16T17:47:54.705Z,4.07
2022-11-16T17:50:21.919Z,4.60
2022-11-16T17:52:49.187Z,3.83
2022-11-16T17:55:16.455Z,4.10
2022-11-16T17:57:43.738Z,4.30
2022-11-16T18:00:11.292Z,4.03
2022-11-16T18:02:38.520Z,4.22
2022-11-16T18:05:05.990Z,4.18
2022-11-16T18:07:33.506Z,3.78
2022-11-16T18:10:00.809Z,3.80
2022-11-16T18:12:28.019Z,3.85
2022-11-16T18:15:26.264Z,3.83
2022-11-16T18:17:42.527Z,3.47
2022-11-16T18:20:10.094Z,3.25
2022-11-16T18:22:37.274Z,3.60
2022-11-16T18:25:04.627Z,3.20
2022-11-16T18:27:31.828Z,3.13
2022-11-16T18:29:59.131Z,2.95
2022-11-16T18:32:26.444Z,3.10
2022-11-16T18:34:53.668Z,3.20
2022-11-16T18:37:20.879Z,3.30
2022-11-16T18:39:48.091Z,3.30
2022-11-16T18:42:15.308Z,3.65
2022-11-16T18:44:42.501Z,3.30
2022-11-16T18:47:09.704Z,3.40
2022-11-16T18:49:37.532Z,3.17
2022-11-16T18:52:04.870Z,3.20
2022-11-16T18:54:32.099Z,3.22
2022-11-16T18:56:59.303Z,3.10
2022-11-16T18:59:26.435Z,2.88
2022-11-16T19:01:53.644Z,3.30
2022-11-16T19:04:20.847Z,3.30
2022-11-16T19:06:48.093Z,3.30
2022-11-16T19:09:15.295Z,3.10
2022-11-16T19:11:42.524Z,3.20
2022-11-16T19:14:09.735Z,3.20
2022-11-16T19:16:38.849Z,3.30
2022-11-16T19:19:07.828Z,3.08
2022-11-16T19:21:35.093Z,3.15
2022-11-16T19:24:02.327Z,3.03
2022-11-16T19:26:29.570Z,3.30
2022-11-16T19:28:58.790Z,2.92
2022-11-16T19:31:27.259Z,3.00
2022-11-16T19:33:55.314Z,2.90
2022-11-16T19:36:23.157Z,2.88
2022-11-16T19:38:50.410Z,3.40
2022-11-16T19:41:20.157Z,3.22
2022-11-16T19:43:47.599Z,3.20
2022-11-16T19:46:21.356Z,2.95
2022-11-16T19:48:49.509Z,3.50
2022-11-16T19:51:20.946Z,2.97
2022-11-16T19:53:48.193Z,3.42
2022-11-16T19:56:16.591Z,3.47
2022-11-16T19:58:44.010Z,3.17
2022-11-16T20:01:12.841Z,2.90
2022-11-16T20:03:43.117Z,3.10
2022-11-16T20:06:12.071Z,2.83
2022-11-16T20:08:41.591Z,3.03
2022-11-16T20:11:16.330Z,3.38
2022-11-16T20:13:44.142Z,2.95
2022-11-16T20:16:12.582Z,2.67
2022-11-16T20:18:40.590Z,2.78
2022-11-16T20:21:08.310Z,2.70
2022-11-16T20:23:36.112Z,2.40
2022-11-16T20:26:07.686Z,2.60
2022-11-16T20:28:36.062Z,2.42
2022-11-16T20:31:06.997Z,2.58
2022-11-16T20:33:35.108Z,2.40
2022-11-16T20:36:06.348Z,2.80
2022-11-16T20:38:34.289Z,2.53
2022-11-16T20:41:08.339Z,2.40
2022-11-16T20:43:36.147Z,2.45
2022-11-16T20:46:03.666Z,2.65
2022-11-16T20:48:30.918Z,2.25
2022-11-16T20:50:58.103Z,2.40
2022-11-16T20:53:26.523Z,2.10
2022-11-16T20:55:53.732Z,2.17
2022-11-16T20:58:23.913Z,2.17
2022-11-16T21:00:51.200Z,1.95
2022-11-16T21:03:18.506Z,2.50
2022-11-16T21:05:46.360Z,2.00
2022-11-16T21:08:13.696Z,2.63
2022-11-16T21:10:40.973Z,2.30
2022-11-16T21:13:31.654Z,2.60
2022-11-16T21:15:59.662Z,2.00
2022-11-16T21:18:30.673Z,2.53
2022-11-16T21:21:01.494Z,2.40
2022-11-16T21:23:29.625Z,2.33
2022-11-16T21:25:56.813Z,2.33
2022-11-16T21:28:25.593Z,2.10
2022-11-16T21:30:57.166Z,2.70
2022-11-16T21:33:24.660Z,2.53
2022-11-16T21:35:52.847Z,2.28
2022-11-16T21:38:20.438Z,2.63
2022-11-16T21:40:47.844Z,2.60
2022-11-16T21:43:15.282Z,2.28
2022-11-16T21:45:43.094Z,2.53
2022-11-16T21:48:10.366Z,2.22
2022-11-16T21:50:37.773Z,2.60
2022-11-16T21:53:05.577Z,2.28
2022-11-16T21:55:33.074Z,2.58
2022-11-16T21:58:00.509Z,2.30
2022-11-16T22:00:28.286Z,2.40
2022-11-16T22:02:55.544Z,2.33
2022-11-16T22:05:55.206Z,2.50
2022-11-16T22:08:22.407Z,2.67
2022-11-16T22:10:50.857Z,2.78
2022-11-16T22:13:18.357Z,2.70
2022-11-16T22:15:45.626Z,2.63
2022-11-16T22:18:13.502Z,2.45
2022-11-16T22:20:40.834Z,2.70
2022-11-16T22:23:08.022Z,2.60
2022-11-16T22:25:37.107Z,2.47
2022-11-16T22:28:21.197Z,2.67
2022-11-16T22:30:51.604Z,2.78
2022-11-16T22:33:19.591Z,2.80
2022-11-16T22:35:47.683Z,3.00
2022-11-16T22:38:14.867Z,2.85
2022-11-16T22:40:42.083Z,3.15
2022-11-16T22:43:09.264Z,3.05
2022-11-16T22:45:36.503Z,3.35
2022-11-16T22:48:03.732Z,3.25
2022-11-16T22:50:30.954Z,3.25
2022-11-16T22:52:59.140Z,3.00
2022-11-16T22:55:26.323Z,2.80
2022-11-16T22:57:53.774Z,2.88
2022-11-16T23:00:21.261Z,2.33
2022-11-16T23:02:48.580Z,2.60
2022-11-16T23:05:15.836Z,2.30
2022-11-16T23:07:43.903Z,2.50
2022-11-16T23:10:11.206Z,2.72
2022-11-16T23:12:57.436Z,2.63
2022-11-16T23:15:48.758Z,2.67
2022-11-16T23:18:16.083Z,2.35
2022-11-16T23:21:01.989Z,2.53
2022-11-16T23:23:48.073Z,2.47
2022-11-16T23:26:40.082Z,2.55
2022-11-16T23:29:09.086Z,2.25
2022-11-16T23:31:36.646Z,2.55
2022-11-16T23:34:03.989Z,2.40
2022-11-16T23:36:31.184Z,2.78
2022-11-16T23:38:58.458Z,2.35
2022-11-16T23:41:44.228Z,2.63
2022-11-16T23:44:11.578Z,2.53
2022-11-16T23:46:38.820Z,2.95
2022-11-16T23:49:06.089Z,3.40
2022-11-16T23:51:33.265Z,2.70
2022-11-16T23:54:00.577Z,2.60
2022-11-16T23:56:28.785Z,2.75
2022-11-16T23:58:59.481Z,2.60
